Share

Harare Kutsaga, Zimbabwe

1:43 PM CAT on April 24, 2014 (GMT +0200)
Harare International (FVHA) Elev 4856 ft | 17.92 °S, 31.13 °E | Change Station

Current weather conditions updated 43 minutes ago

Scattered Clouds
Scattered Clouds
79 °F
Feels Like 79 °F
N
9
Wind Variable Wind from Variable
Sunrise 6:06 AM
Sunset 5:40 PM
Moon Waning Crescent

Today is forecast to be nearly the same temperature as yesterday. A few thunderstorms possible.

Pressure 30.12 in
Visibility 6.2 miles
Clouds Mostly Cloudy 4000 ft
Scattered Clouds 10000 ft
Dew Point 59 °F
Humidity 51%
Rainfall 0.00 in
Snow Depth Not available.
UV 9 out of 16
Pollen Not available.
Air Quality Not available.
Flu Activity Not available.
METAR FVHA 241100Z VRB08KT 9999 BKN040 SCT100 26/15 Q1020 NOSIG RMK QFE 852.9

More Conditions Fewer Conditions

Pressure 30.12 in
Visibility 6.2 miles
Clouds Mostly Cloudy 4000 ft
Scattered Clouds 10000 ft
Dew Point 59 °F
Humidity 51%
Rainfall 0.00 in
Snow Depth Not available.
UV 9 out of 16
Pollen Not available.
Air Quality Not available.
Flu Activity Not available.
METAR FVHA 241100Z VRB08KT 9999 BKN040 SCT100 26/15 Q1020 NOSIG RMK QFE 852.9

More Conditions Fewer Conditions

10-Day Weather Forecast

Almanac

Astronomy

Apr. 24, 2014 Rise Set
Actual Time 6:06 AM CAT 5:40 PM CAT
Civil Twilight 5:44 AM CAT 6:02 PM CAT
Nautical Twilight 5:19 AM CAT 6:28 PM CAT
Astronomical Twilight 4:53 AM CAT 6:53 PM CAT
Moon 1:22 AM CAT 2:06 PM CAT
Length of Visible Light 12h 17m
Length of Day
11h 33m
Tomorrow will be 0m 53s shorter.
Waning Crescent, 26% of the Moon is Illuminated
Today
Waning Crescent
Apr 29
New
May 6
First Quarter
May 14
Full
May 21
Last Quarter

Yesterday's Extremes

Country Highs Country Lows

Community

  • Stacked
    Stacked
  • clouds approaching Red Sox Nation
    clouds approaching Red Sox Nation
  • Balance
    Balance
  • Nestled In
    Nestled In
  • Stunning Sunrise
    Stunning Sunrise

WunderPhotos

Upload Photos

1,704,585 photos uploaded!

WunderBlogs® & News

Nearby

Snow Depth

Not available.

Coastal Water Temperatures

Place Temperature
No Stations Reporting

Earthquake Activity

City Distance Mag. Time & Date
No recent earthquake activity has been reported nearby.
Minimum magnitude displayed is 2.5.

Nearby Weather Stations

Station Location Temp. Heat Index Dew Point Humidity Wind Precip. Elev Updated Type
Borrowdale Brooke, Harare 75.9 °F 78 °F 60 °F 58% NE  at  3.1 mph 0.00 in / hr 4757 ft 1:42 PM CAT Rapid Fire

Show More Stations Show Fewer Stations

What do you think?

We're not finished. Please let us know what you like, what you don't like, and what you are still missing.